createdAt,value
2023-08-18T00:01:51.389Z,23.39
2023-08-18T00:04:18.483Z,23.34
2023-08-18T00:06:45.585Z,23.34
2023-08-18T00:09:12.568Z,23.30
2023-08-18T00:11:39.669Z,23.27
2023-08-18T00:14:06.886Z,23.25
2023-08-18T00:16:34.034Z,23.20
2023-08-18T00:19:00.839Z,23.17
2023-08-18T00:21:28.227Z,23.15
2023-08-18T00:23:55.045Z,23.13
2023-08-18T00:26:22.166Z,23.09
2023-08-18T00:28:49.532Z,23.06
2023-08-18T00:31:16.811Z,23.04
2023-08-18T00:33:44.259Z,23.01
2023-08-18T00:36:11.120Z,22.97
2023-08-18T00:38:38.237Z,22.92
2023-08-18T00:41:05.334Z,22.91
2023-08-18T00:43:32.430Z,22.88
2023-08-18T00:45:59.537Z,22.85
2023-08-18T00:48:27.574Z,22.83
2023-08-18T00:50:55.238Z,22.82
2023-08-18T00:53:22.454Z,22.80
2023-08-18T00:55:49.931Z,22.75
2023-08-18T00:58:17.467Z,22.75
2023-08-18T01:00:45.033Z,22.73
2023-08-18T01:03:12.338Z,22.70
2023-08-18T01:05:39.829Z,22.66
2023-08-18T01:08:07.242Z,22.64
2023-08-18T01:10:41.109Z,22.62
2023-08-18T01:13:42.165Z,22.57
2023-08-18T01:16:15.986Z,22.55
2023-08-18T01:18:43.388Z,22.52
2023-08-18T01:21:13.287Z,22.49
2023-08-18T01:23:41.052Z,22.46
2023-08-18T01:26:08.406Z,22.45
2023-08-18T01:28:37.187Z,22.42
2023-08-18T01:31:08.243Z,22.41
2023-08-18T01:33:38.423Z,22.37
2023-08-18T01:36:09.342Z,22.34
2023-08-18T01:38:38.025Z,22.31
2023-08-18T01:41:07.007Z,22.29
2023-08-18T01:43:34.716Z,22.25
2023-08-18T01:46:02.634Z,22.24
2023-08-18T01:48:29.747Z,22.19
2023-08-18T01:50:56.606Z,22.17
2023-08-18T01:53:23.728Z,22.18
2023-08-18T01:55:50.890Z,22.17
2023-08-18T01:58:17.685Z,22.15
2023-08-18T02:00:44.830Z,22.11
2023-08-18T02:03:12.058Z,22.08
2023-08-18T02:05:40.501Z,22.04
2023-08-18T02:08:08.076Z,22.03
2023-08-18T02:10:35.208Z,22.00
2023-08-18T02:13:02.017Z,21.98
2023-08-18T02:15:29.862Z,21.95
2023-08-18T02:17:56.672Z,21.92
2023-08-18T02:20:23.848Z,21.92
2023-08-18T02:22:50.965Z,21.90
2023-08-18T02:25:17.985Z,21.89
2023-08-18T02:27:45.077Z,21.86
2023-08-18T02:30:13.489Z,21.83
2023-08-18T02:32:40.272Z,21.81
2023-08-18T02:35:07.429Z,21.79
2023-08-18T02:37:34.877Z,21.75
2023-08-18T02:40:02.006Z,21.72
2023-08-18T02:42:29.102Z,21.68
2023-08-18T02:44:56.518Z,21.67
2023-08-18T02:47:23.993Z,21.66
2023-08-18T02:49:52.458Z,21.63
2023-08-18T02:52:19.676Z,21.64
2023-08-18T02:54:47.163Z,21.61
2023-08-18T02:57:14.255Z,21.59
2023-08-18T02:59:41.398Z,21.56
2023-08-18T03:02:08.512Z,21.53
2023-08-18T03:04:35.952Z,21.52
2023-08-18T03:07:02.752Z,21.51
2023-08-18T03:09:30.083Z,21.49
2023-08-18T03:11:57.488Z,21.47
2023-08-18T03:14:24.888Z,21.44
2023-08-18T03:16:51.961Z,21.45
2023-08-18T03:19:19.619Z,21.41
2023-08-18T03:21:46.771Z,21.39
2023-08-18T03:24:14.827Z,21.36
2023-08-18T03:26:41.641Z,21.36
2023-08-18T03:29:09.173Z,21.33
2023-08-18T03:31:36.298Z,21.32
2023-08-18T03:34:03.280Z,21.30
2023-08-18T03:36:30.704Z,21.29
2023-08-18T03:38:57.550Z,21.27
2023-08-18T03:41:24.704Z,21.27
2023-08-18T03:43:51.841Z,21.26
2023-08-18T03:46:30.208Z,21.24
2023-08-18T03:48:57.471Z,21.21
2023-08-18T03:51:24.629Z,21.20
2023-08-18T03:53:51.406Z,21.21
2023-08-18T03:56:19.037Z,21.19
2023-08-18T03:58:46.144Z,21.18
2023-08-18T04:01:13.333Z,21.17
2023-08-18T04:03:42.640Z,21.13
2023-08-18T04:06:11.014Z,21.12
2023-08-18T04:08:42.861Z,21.11
2023-08-18T04:11:10.075Z,21.10
2023-08-18T04:13:37.685Z,21.07
2023-08-18T04:16:05.054Z,21.07
2023-08-18T04:18:32.130Z,21.05
2023-08-18T04:21:00.075Z,21.04
2023-08-18T04:23:27.158Z,21.03
2023-08-18T04:25:54.297Z,21.03
2023-08-18T04:28:22.355Z,21.02
2023-08-18T04:30:49.139Z,21.01
2023-08-18T04:33:16.257Z,20.98
2023-08-18T04:35:43.358Z,20.97
2023-08-18T04:38:10.232Z,20.96
2023-08-18T04:40:37.663Z,20.96
2023-08-18T04:43:04.569Z,20.95
2023-08-18T04:45:31.799Z,20.96
2023-08-18T04:47:59.971Z,20.97
2023-08-18T04:50:27.260Z,20.99
2023-08-18T04:52:54.111Z,21.01
2023-08-18T04:55:21.567Z,21.01
2023-08-18T04:57:48.615Z,21.04
2023-08-18T05:00:16.108Z,21.08
2023-08-18T05:02:43.796Z,21.10
2023-08-18T05:05:10.655Z,21.13
2023-08-18T05:07:38.145Z,21.15
2023-08-18T05:10:05.399Z,21.19
2023-08-18T05:12:32.602Z,21.22
2023-08-18T05:14:59.998Z,21.27
2023-08-18T05:17:27.240Z,21.29
2023-08-18T05:19:54.346Z,21.35
2023-08-18T05:22:23.102Z,21.39
2023-08-18T05:24:50.627Z,21.42
2023-08-18T05:27:17.943Z,21.47
2023-08-18T05:29:45.052Z,21.50
2023-08-18T05:32:16.084Z,21.53
2023-08-18T05:34:43.341Z,21.57
2023-08-18T05:37:10.439Z,21.62
2023-08-18T05:39:37.535Z,21.66
2023-08-18T05:42:05.073Z,21.69
2023-08-18T05:44:31.902Z,21.73
2023-08-18T05:46:59.009Z,21.78
2023-08-18T05:49:26.481Z,21.82
2023-08-18T05:51:53.584Z,21.86
2023-08-18T05:54:20.389Z,21.92
2023-08-18T05:56:47.598Z,21.97
2023-08-18T05:59:14.779Z,22.00
2023-08-18T06:01:42.410Z,22.05
2023-08-18T06:04:09.889Z,22.09
2023-08-18T06:06:38.149Z,22.14
2023-08-18T06:09:05.419Z,22.19
2023-08-18T06:11:32.567Z,22.24
2023-08-18T06:14:00.993Z,22.27
2023-08-18T06:16:27.794Z,22.31
2023-08-18T06:18:55.247Z,22.36
2023-08-18T06:21:22.366Z,22.42
2023-08-18T06:23:50.022Z,22.45
2023-08-18T06:26:17.170Z,22.48
2023-08-18T06:28:44.310Z,22.53
2023-08-18T06:31:11.462Z,22.57
2023-08-18T06:33:38.557Z,22.63
2023-08-18T06:36:05.710Z,22.68
2023-08-18T06:38:32.797Z,22.73
2023-08-18T06:41:00.273Z,22.77
2023-08-18T06:43:27.145Z,22.83
2023-08-18T06:45:54.281Z,22.88
2023-08-18T06:48:21.388Z,22.94
2023-08-18T06:50:48.549Z,22.99
2023-08-18T06:53:16.172Z,23.06
2023-08-18T06:55:56.857Z,23.12
2023-08-18T06:58:30.293Z,23.20
2023-08-18T07:00:57.560Z,23.31
2023-08-18T07:03:24.860Z,23.37
2023-08-18T07:05:51.743Z,23.46
2023-08-18T07:08:19.136Z,23.55
2023-08-18T07:10:46.281Z,23.65
2023-08-18T07:13:13.355Z,23.73
2023-08-18T07:15:40.810Z,23.81
2023-08-18T07:18:08.597Z,23.87
2023-08-18T07:20:35.744Z,23.96
2023-08-18T07:23:05.120Z,24.02
2023-08-18T07:25:32.564Z,24.08
2023-08-18T07:27:59.326Z,24.13
2023-08-18T07:30:26.577Z,24.19
2023-08-18T07:32:55.559Z,24.25
2023-08-18T07:35:22.810Z,24.31
2023-08-18T07:37:55.445Z,24.38
2023-08-18T07:40:23.866Z,24.45
2023-08-18T07:42:50.648Z,24.52
2023-08-18T07:45:17.476Z,24.59
2023-08-18T07:47:46.562Z,24.64
2023-08-18T07:50:14.805Z,24.72
2023-08-18T07:52:43.265Z,24.79
2023-08-18T07:55:10.644Z,24.87
2023-08-18T07:57:41.901Z,24.94
2023-08-18T08:00:17.861Z,25.02
2023-08-18T08:02:46.416Z,25.06
2023-08-18T08:05:14.139Z,25.12
2023-08-18T08:07:41.921Z,25.18
2023-08-18T08:10:09.941Z,25.24
2023-08-18T08:12:40.686Z,25.29
2023-08-18T08:15:09.744Z,25.34
2023-08-18T08:17:36.765Z,25.36
2023-08-18T08:20:30.416Z,25.42
2023-08-18T08:22:57.889Z,25.49
2023-08-18T08:25:25.373Z,25.57
2023-08-18T08:27:58.872Z,25.64
2023-08-18T08:33:01.458Z,25.81
2023-08-18T08:35:29.657Z,25.90
2023-08-18T08:37:58.010Z,25.99
2023-08-18T08:40:25.025Z,26.07
2023-08-18T08:45:29.462Z,26.27
2023-08-18T08:48:00.411Z,26.37
2023-08-18T08:50:31.951Z,26.45
2023-08-18T08:53:01.904Z,26.53
2023-08-18T08:55:33.592Z,26.61
2023-08-18T08:58:00.768Z,26.70
2023-08-18T09:00:28.740Z,26.77
2023-08-18T09:03:02.089Z,26.83
2023-08-18T09:05:33.253Z,26.88
2023-08-18T09:08:01.544Z,26.95
2023-08-18T09:10:28.534Z,27.01
2023-08-18T09:12:56.403Z,27.06
2023-08-18T09:15:27.189Z,27.17
2023-08-18T09:17:54.449Z,27.27
2023-08-18T09:20:23.327Z,27.38
2023-08-18T09:22:57.776Z,27.48
2023-08-18T09:25:28.347Z,27.60
2023-08-18T09:27:56.186Z,27.69
2023-08-18T09:30:25.729Z,27.79
2023-08-18T09:32:53.804Z,27.90
2023-08-18T09:35:21.408Z,27.97
2023-08-18T09:38:06.557Z,28.05
2023-08-18T09:40:34.219Z,28.14
2023-08-18T09:45:34.140Z,28.26
2023-08-18T09:48:04.079Z,28.30
2023-08-18T09:50:34.480Z,28.34
2023-08-18T09:53:02.773Z,28.36
2023-08-18T09:55:45.813Z,28.39
2023-08-18T09:58:21.437Z,28.39
2023-08-18T10:00:56.253Z,28.43
2023-08-18T10:03:26.437Z,28.46
2023-08-18T10:05:54.049Z,28.48
2023-08-18T10:08:24.392Z,28.48
2023-08-18T10:10:52.447Z,28.49
2023-08-18T10:13:20.598Z,28.52
2023-08-18T10:15:49.325Z,28.54
2023-08-18T10:18:17.788Z,28.59
2023-08-18T10:20:53.468Z,28.65
2023-08-18T10:23:24.183Z,28.71
2023-08-18T10:25:52.025Z,28.78
2023-08-18T10:28:24.142Z,28.82
2023-08-18T10:30:56.993Z,28.87
2023-08-18T10:33:36.952Z,28.94
2023-08-18T10:36:05.430Z,29.05
2023-08-18T10:38:37.577Z,29.14
2023-08-18T10:41:04.733Z,29.24
2023-08-18T10:43:42.994Z,29.31
2023-08-18T10:46:14.438Z,29.35
2023-08-18T10:48:41.469Z,29.38
2023-08-18T10:51:08.960Z,29.39
2023-08-18T10:53:39.064Z,29.38
2023-08-18T10:56:06.330Z,29.40
2023-08-18T10:58:34.077Z,29.43
2023-08-18T11:01:01.750Z,29.49
2023-08-18T11:03:29.158Z,29.57
2023-08-18T11:05:56.733Z,29.64
2023-08-18T11:08:23.727Z,29.68
2023-08-18T11:10:51.271Z,29.74
2023-08-18T11:13:26.856Z,29.81
2023-08-18T11:15:55.910Z,29.86
2023-08-18T11:18:23.444Z,29.91
2023-08-18T11:20:52.640Z,29.95
2023-08-18T11:23:21.015Z,30.00
2023-08-18T11:25:48.608Z,30.04
2023-08-18T11:28:16.106Z,30.07
2023-08-18T11:30:45.589Z,30.12
2023-08-18T11:33:13.069Z,30.20
2023-08-18T11:35:40.253Z,30.28
2023-08-18T11:38:09.320Z,30.37
2023-08-18T11:40:40.991Z,30.48
2023-08-18T11:43:11.816Z,30.59
2023-08-18T11:45:39.885Z,30.71
2023-08-18T11:48:08.845Z,30.81
2023-08-18T11:50:37.112Z,30.95
2023-08-18T11:53:06.324Z,31.04
2023-08-18T11:55:43.533Z,31.15
2023-08-18T11:58:17.606Z,31.26
2023-08-18T12:00:46.950Z,31.37
2023-08-18T12:03:26.096Z,31.46
2023-08-18T12:05:55.691Z,31.53
2023-08-18T12:08:22.996Z,31.56
2023-08-18T12:10:52.063Z,31.53
2023-08-18T12:13:19.558Z,31.52
2023-08-18T12:15:46.698Z,31.51
2023-08-18T12:18:13.894Z,31.49
2023-08-18T12:20:41.248Z,31.48
2023-08-18T12:23:08.448Z,31.45
2023-08-18T12:25:35.231Z,31.43
2023-08-18T12:28:02.647Z,31.43
2023-08-18T12:30:29.495Z,31.40
2023-08-18T12:32:56.642Z,31.40
2023-08-18T12:35:25.349Z,31.35
2023-08-18T12:37:52.739Z,31.33
2023-08-18T12:40:19.647Z,31.31
2023-08-18T12:42:46.849Z,31.30
2023-08-18T12:45:14.647Z,31.30
2023-08-18T12:47:41.527Z,31.30
2023-08-18T12:50:09.529Z,31.34
2023-08-18T12:52:36.770Z,31.39
2023-08-18T12:55:05.330Z,31.42
2023-08-18T12:57:32.478Z,31.48
2023-08-18T12:59:59.622Z,31.55
2023-08-18T13:02:26.690Z,31.65
2023-08-18T13:04:54.200Z,31.74
2023-08-18T13:07:21.117Z,31.84
2023-08-18T13:09:48.290Z,31.90
2023-08-18T13:14:45.307Z,32.06
2023-08-18T13:17:13.187Z,32.14
2023-08-18T13:19:47.652Z,32.24
2023-08-18T13:22:16.228Z,32.33
2023-08-18T13:24:43.696Z,32.42
2023-08-18T13:27:11.297Z,32.50
2023-08-18T13:29:38.249Z,32.61
2023-08-18T13:32:06.193Z,32.69
2023-08-18T13:34:33.284Z,32.72
2023-08-18T13:37:00.517Z,32.74
2023-08-18T13:39:28.190Z,32.73
2023-08-18T13:41:55.357Z,32.71
2023-08-18T13:44:22.488Z,32.72
2023-08-18T13:46:49.615Z,32.73
2023-08-18T13:49:16.759Z,32.76
2023-08-18T13:51:43.973Z,32.81
2023-08-18T13:54:13.265Z,32.87
2023-08-18T13:56:44.583Z,32.87
2023-08-18T13:59:12.198Z,32.91
2023-08-18T14:01:39.338Z,32.99
2023-08-18T14:04:06.693Z,33.05
2023-08-18T14:06:33.524Z,33.11
2023-08-18T14:09:02.323Z,33.16
2023-08-18T14:11:30.135Z,33.22
2023-08-18T14:13:56.983Z,33.26
2023-08-18T14:16:24.199Z,33.27
2023-08-18T14:18:54.890Z,33.27
2023-08-18T14:21:23.925Z,33.25
2023-08-18T14:23:51.150Z,33.23
2023-08-18T14:26:21.918Z,33.20
2023-08-18T14:28:48.806Z,33.20
2023-08-18T14:31:16.192Z,33.19
2023-08-18T14:33:46.224Z,33.20
2023-08-18T14:36:17.929Z,33.20
2023-08-18T14:38:45.271Z,33.19
2023-08-18T14:41:12.692Z,33.21
2023-08-18T14:43:40.691Z,33.23
2023-08-18T14:46:09.678Z,33.25
2023-08-18T14:48:37.050Z,33.28
2023-08-18T14:51:05.752Z,33.33
2023-08-18T14:53:33.790Z,33.37
2023-08-18T14:56:00.636Z,33.39
2023-08-18T14:58:29.026Z,33.42
2023-08-18T15:00:57.152Z,33.42
2023-08-18T15:03:24.361Z,33.42
2023-08-18T15:05:52.353Z,33.42
2023-08-18T15:08:19.653Z,33.40
2023-08-18T15:10:47.652Z,33.39
2023-08-18T15:13:14.837Z,33.36
2023-08-18T15:15:42.305Z,33.33
2023-08-18T15:18:09.261Z,33.28
2023-08-18T15:20:36.757Z,33.24
2023-08-18T15:23:03.765Z,33.20
2023-08-18T15:25:31.405Z,33.17
2023-08-18T15:27:59.205Z,33.14
2023-08-18T15:30:26.734Z,33.10
2023-08-18T15:32:53.884Z,33.06
2023-08-18T15:35:21.154Z,33.03
2023-08-18T15:37:51.262Z,32.99
2023-08-18T15:40:18.037Z,32.96
2023-08-18T15:42:45.231Z,32.91
2023-08-18T15:45:12.714Z,32.88
2023-08-18T15:47:40.541Z,32.83
2023-08-18T15:50:07.546Z,32.79
2023-08-18T15:52:35.036Z,32.73
2023-08-18T15:55:02.735Z,32.67
2023-08-18T15:57:29.798Z,32.60
2023-08-18T15:59:57.995Z,32.54
2023-08-18T16:02:25.106Z,32.47
2023-08-18T16:04:52.493Z,32.40
2023-08-18T16:07:19.590Z,32.32
2023-08-18T16:09:47.781Z,32.26
2023-08-18T16:12:14.907Z,32.21
2023-08-18T16:17:12.329Z,32.12
2023-08-18T16:19:39.105Z,32.08
2023-08-18T16:22:06.261Z,32.04
2023-08-18T16:24:33.341Z,32.00
2023-08-18T16:27:00.525Z,31.97
2023-08-18T16:29:27.363Z,31.92
2023-08-18T16:31:54.847Z,31.89
2023-08-18T16:34:22.685Z,31.84
2023-08-18T16:36:50.487Z,31.78
2023-08-18T16:39:18.026Z,31.72
2023-08-18T16:41:45.310Z,31.66
2023-08-18T16:44:12.802Z,31.60
2023-08-18T16:46:40.948Z,31.56
2023-08-18T16:49:08.327Z,31.52
2023-08-18T16:51:36.198Z,31.48
2023-08-18T16:54:03.563Z,31.42
2023-08-18T16:56:30.476Z,31.38
2023-08-18T16:58:57.947Z,31.33
2023-08-18T17:01:24.738Z,31.29
2023-08-18T17:03:52.360Z,31.25
2023-08-18T17:06:19.772Z,31.17
2023-08-18T17:08:46.552Z,31.13
2023-08-18T17:11:13.735Z,31.08
2023-08-18T17:13:40.915Z,31.03
2023-08-18T17:16:07.816Z,30.99
2023-08-18T17:18:35.021Z,30.94
2023-08-18T17:21:02.684Z,30.90
2023-08-18T17:23:29.458Z,30.85
2023-08-18T17:25:56.576Z,30.81
2023-08-18T17:28:24.067Z,30.76
2023-08-18T17:30:50.937Z,30.72
2023-08-18T17:33:18.115Z,30.68
2023-08-18T17:35:45.843Z,30.62
2023-08-18T17:38:13.528Z,30.55
2023-08-18T17:40:43.881Z,30.49
2023-08-18T17:43:11.517Z,30.43
2023-08-18T17:45:41.700Z,30.36
2023-08-18T17:48:09.466Z,30.33
2023-08-18T17:50:37.366Z,30.29
2023-08-18T17:53:04.590Z,30.25
2023-08-18T17:55:34.463Z,30.20
2023-08-18T17:58:05.193Z,30.15
2023-08-18T18:00:33.608Z,30.09
2023-08-18T18:03:01.607Z,30.05
2023-08-18T18:05:29.075Z,29.99
2023-08-18T18:07:56.002Z,29.93
2023-08-18T18:10:24.023Z,29.88
2023-08-18T18:12:51.355Z,29.84
2023-08-18T18:15:18.388Z,29.79
2023-08-18T18:17:45.775Z,29.73
2023-08-18T18:20:13.375Z,29.68
2023-08-18T18:22:40.834Z,29.64
2023-08-18T18:25:09.218Z,29.61
2023-08-18T18:27:37.201Z,29.53
2023-08-18T18:30:05.467Z,29.48
2023-08-18T18:32:33.668Z,29.41
2023-08-18T18:35:00.503Z,29.36
2023-08-18T18:37:28.103Z,29.32
2023-08-18T18:39:55.499Z,29.26
2023-08-18T18:42:22.816Z,29.21
2023-08-18T18:44:50.047Z,29.13
2023-08-18T18:47:17.360Z,29.09
2023-08-18T18:49:45.422Z,29.01
2023-08-18T18:52:13.649Z,28.95
2023-08-18T18:54:40.958Z,28.90
2023-08-18T18:57:09.672Z,28.87
2023-08-18T18:59:36.483Z,28.81
2023-08-18T19:02:04.040Z,28.74
2023-08-18T19:04:31.387Z,28.67
2023-08-18T19:06:58.808Z,28.63
2023-08-18T19:09:26.032Z,28.57
2023-08-18T19:11:54.524Z,28.49
2023-08-18T19:14:22.337Z,28.43
2023-08-18T19:16:49.679Z,28.38
2023-08-18T19:19:18.565Z,28.33
2023-08-18T19:21:46.979Z,28.29
2023-08-18T19:24:14.204Z,28.25
2023-08-18T19:26:47.740Z,28.19
2023-08-18T19:29:16.039Z,28.16
2023-08-18T19:31:46.214Z,28.12
2023-08-18T19:34:14.869Z,28.07
2023-08-18T19:36:42.218Z,28.01
2023-08-18T19:39:09.834Z,27.99
2023-08-18T19:41:37.353Z,27.90
2023-08-18T19:44:04.919Z,27.86
2023-08-18T19:46:31.850Z,27.81
2023-08-18T19:48:59.321Z,27.76
2023-08-18T19:51:26.954Z,27.70
2023-08-18T19:53:54.716Z,27.66
2023-08-18T19:56:22.682Z,27.60
2023-08-18T19:58:50.341Z,27.58
2023-08-18T20:01:19.668Z,27.52
2023-08-18T20:03:47.564Z,27.47
2023-08-18T20:06:14.984Z,27.38
2023-08-18T20:08:42.673Z,27.32
2023-08-18T20:11:12.026Z,27.26
2023-08-18T20:13:39.432Z,27.20
2023-08-18T20:16:07.089Z,27.16
2023-08-18T20:18:34.380Z,27.12
2023-08-18T20:21:01.716Z,27.06
2023-08-18T20:23:30.148Z,26.99
2023-08-18T20:26:06.834Z,26.96
2023-08-18T20:28:36.422Z,26.91
2023-08-18T20:31:08.144Z,26.86
2023-08-18T20:33:36.818Z,26.82
2023-08-18T20:36:05.032Z,26.77
2023-08-18T20:38:34.251Z,26.75
2023-08-18T20:41:05.036Z,26.72
2023-08-18T20:43:32.056Z,26.69
2023-08-18T20:45:59.356Z,26.64
2023-08-18T20:48:29.823Z,26.58
2023-08-18T20:50:57.992Z,26.51
2023-08-18T20:53:25.845Z,26.46
2023-08-18T20:55:53.307Z,26.43
2023-08-18T20:58:20.473Z,26.42
2023-08-18T21:00:48.009Z,26.37
2023-08-18T21:03:15.233Z,26.32
2023-08-18T21:05:46.897Z,26.29
2023-08-18T21:08:14.131Z,26.26
2023-08-18T21:10:41.282Z,26.23
2023-08-18T21:13:08.916Z,26.18
2023-08-18T21:15:36.286Z,26.13
2023-08-18T21:18:04.333Z,26.11
2023-08-18T21:20:31.674Z,26.10
2023-08-18T21:22:58.812Z,26.05
2023-08-18T21:25:25.940Z,26.01
2023-08-18T21:27:53.097Z,25.96
2023-08-18T21:30:20.291Z,25.92
2023-08-18T21:32:47.665Z,25.87
2023-08-18T21:35:16.251Z,25.82
2023-08-18T21:37:44.406Z,25.81
2023-08-18T21:40:12.112Z,25.77
2023-08-18T21:42:39.290Z,25.72
2023-08-18T21:45:06.719Z,25.67
2023-08-18T21:47:33.914Z,25.62
2023-08-18T21:50:01.662Z,25.58
2023-08-18T21:52:29.373Z,25.54
2023-08-18T21:54:56.872Z,25.50
2023-08-18T21:57:23.640Z,25.48
2023-08-18T21:59:51.115Z,25.44
2023-08-18T22:02:18.633Z,25.38
2023-08-18T22:04:45.456Z,25.34
2023-08-18T22:07:12.564Z,25.32
2023-08-18T22:09:40.033Z,25.29
2023-08-18T22:12:08.244Z,25.24
2023-08-18T22:14:34.998Z,25.21
2023-08-18T22:17:02.420Z,25.16
2023-08-18T22:19:29.596Z,25.12
2023-08-18T22:21:56.552Z,25.06
2023-08-18T22:24:24.051Z,25.03
2023-08-18T22:26:50.859Z,25.00
2023-08-18T22:29:18.038Z,24.98
2023-08-18T22:31:45.221Z,24.94
2023-08-18T22:34:12.393Z,24.90
2023-08-18T22:36:39.197Z,24.88
2023-08-18T22:39:06.347Z,24.83
2023-08-18T22:41:33.428Z,24.80
2023-08-18T22:44:00.242Z,24.76
2023-08-18T22:46:29.106Z,24.72
2023-08-18T22:48:56.335Z,24.69
2023-08-18T22:51:24.237Z,24.65
2023-08-18T22:53:51.814Z,24.61
2023-08-18T22:56:18.952Z,24.58
2023-08-18T22:58:46.462Z,24.54
2023-08-18T23:01:13.638Z,24.49
2023-08-18T23:03:40.529Z,24.46
2023-08-18T23:06:07.775Z,24.44
2023-08-18T23:08:34.900Z,24.41
2023-08-18T23:11:05.214Z,24.35
2023-08-18T23:13:32.645Z,24.32
2023-08-18T23:16:01.976Z,24.27
2023-08-18T23:18:29.157Z,24.26
2023-08-18T23:20:57.068Z,24.26
2023-08-18T23:23:24.559Z,24.23
2023-08-18T23:25:53.034Z,24.19
2023-08-18T23:28:20.102Z,24.16
2023-08-18T23:30:47.585Z,24.13
2023-08-18T23:33:15.055Z,24.11
2023-08-18T23:35:42.033Z,24.09
2023-08-18T23:38:09.431Z,24.04
2023-08-18T23:40:40.762Z,24.01
2023-08-18T23:43:09.144Z,23.98
2023-08-18T23:45:35.995Z,23.94
2023-08-18T23:48:03.361Z,23.92
2023-08-18T23:50:30.825Z,23.89
2023-08-18T23:52:57.923Z,23.85
2023-08-18T23:55:25.039Z,23.84
2023-08-18T23:57:52.890Z,23.81
